Time;durP1;ratioP1;P1;durP2;ratioP2;P2;SDS_P1;SDS_P2;PMS_P1;PMS_P2;Temp;Humidity;BMP_temperature;BMP_pressure;BME280_temperature;BME280_humidity;BME280_pressure;Samples;Min_cycle;Max_cycle;Signal;HPM_P1;HPM_P2
2022/05/15 00:00:37;;;;;;;;;;;22.40;50.10;;;;;;4936909;29;20290;-66
2022/05/15 00:03:03;;;;;;;;;;;22.30;50.20;;;;;;4936784;29;20013;-66
2022/05/15 00:05:28;;;;;;;;;;;22.30;50.20;;;;;;4936980;29;19957;-65
2022/05/15 00:07:56;;;;;;;;;;;22.30;49.60;;;;;;4936945;29;20359;-65
2022/05/15 00:10:22;;;;;;;;;;;22.40;49.40;;;;;;4936578;29;20014;-65
2022/05/15 00:12:48;;;;;;;;;;;22.40;49.10;;;;;;4936752;29;19959;-68
2022/05/15 00:15:13;;;;;;;;;;;22.40;48.80;;;;;;4936937;29;19911;-66
2022/05/15 00:17:39;;;;;;;;;;;22.50;49.00;;;;;;4936719;29;19911;-66
2022/05/15 00:20:05;;;;;;;;;;;22.50;48.70;;;;;;4936451;29;19946;-66
2022/05/15 00:22:32;;;;;;;;;;;22.40;48.90;;;;;;4937131;29;19918;-66
2022/05/15 00:24:58;;;;;;;;;;;22.40;49.10;;;;;;4936537;29;19927;-66
2022/05/15 00:27:23;;;;;;;;;;;22.40;49.20;;;;;;4936722;29;19915;-66
2022/05/15 00:29:49;;;;;;;;;;;22.40;49.30;;;;;;4936656;29;19958;-67
2022/05/15 00:32:14;;;;;;;;;;;22.40;49.20;;;;;;4936617;29;19911;-66
2022/05/15 00:34:40;;;;;;;;;;;22.30;49.50;;;;;;4936428;29;20278;-64
2022/05/15 00:37:06;;;;;;;;;;;22.20;49.40;;;;;;4936479;29;19911;-66
2022/05/15 00:39:31;;;;;;;;;;;22.30;49.50;;;;;;4936698;29;19953;-66
2022/05/15 00:41:57;;;;;;;;;;;22.20;49.90;;;;;;4936426;29;20311;-67
2022/05/15 00:44:23;;;;;;;;;;;22.20;50.10;;;;;;4936599;29;19911;-68
2022/05/15 00:46:48;;;;;;;;;;;22.20;50.10;;;;;;4936285;29;20375;-68
2022/05/15 00:49:14;;;;;;;;;;;22.20;50.00;;;;;;4936196;29;19917;-65
2022/05/15 00:51:48;;;;;;;;;;;22.20;50.00;;;;;;4919216;29;20237;-66
2022/05/15 00:54:26;;;;;;;;;;;22.20;50.10;;;;;;4936421;29;19965;-65
2022/05/15 00:56:55;;;;;;;;;;;22.20;50.00;;;;;;4936379;29;19966;-65
2022/05/15 00:59:22;;;;;;;;;;;22.20;49.90;;;;;;4936240;29;19910;-67
2022/05/15 01:01:48;;;;;;;;;;;22.30;49.50;;;;;;4936156;29;19975;-69
2022/05/15 01:04:13;;;;;;;;;;;22.40;49.20;;;;;;4936470;29;19919;-67
2022/05/15 01:06:43;;;;;;;;;;;22.40;49.20;;;;;;4936524;29;19915;-66
2022/05/15 01:09:09;;;;;;;;;;;22.40;49.20;;;;;;4936423;29;20389;-66
2022/05/15 01:11:36;;;;;;;;;;;22.50;49.00;;;;;;4936007;29;19918;-66
2022/05/15 01:14:05;;;;;;;;;;;22.40;49.10;;;;;;4936101;29;20320;-65
2022/05/15 01:16:32;;;;;;;;;;;22.40;48.80;;;;;;4936049;29;19915;-66
2022/05/15 01:18:58;;;;;;;;;;;22.40;49.20;;;;;;4936372;29;19914;-67
2022/05/15 01:21:31;;;;;;;;;;;22.30;49.40;;;;;;4936356;29;19918;-68
2022/05/15 01:23:57;;;;;;;;;;;22.30;49.40;;;;;;4935957;29;20402;-67
2022/05/15 01:26:24;;;;;;;;;;;22.30;49.50;;;;;;4935608;29;19981;-65
2022/05/15 01:28:50;;;;;;;;;;;22.30;49.50;;;;;;4936059;29;20359;-66
2022/05/15 01:31:16;;;;;;;;;;;22.30;49.50;;;;;;4935742;29;19974;-65
2022/05/15 01:33:44;;;;;;;;;;;22.30;49.60;;;;;;4936247;29;20283;-67
2022/05/15 01:36:10;;;;;;;;;;;22.30;49.80;;;;;;4936101;29;20413;-66
2022/05/15 01:38:36;;;;;;;;;;;22.20;50.00;;;;;;4936277;29;19915;-66
2022/05/15 01:41:01;;;;;;;;;;;22.20;50.10;;;;;;4918609;29;19911;-66
2022/05/15 01:43:27;;;;;;;;;;;22.20;50.30;;;;;;4936140;29;19911;-67
2022/05/15 01:45:52;;;;;;;;;;;22.20;50.40;;;;;;4936115;29;20245;-68
2022/05/15 01:48:18;;;;;;;;;;;22.10;50.40;;;;;;4935960;29;20006;-67
2022/05/15 01:50:44;;;;;;;;;;;22.20;50.60;;;;;;4938022;29;19922;-67
2022/05/15 01:53:09;;;;;;;;;;;22.00;50.90;;;;;;4939354;29;20374;-67
2022/05/15 01:55:35;;;;;;;;;;;21.90;51.20;;;;;;4939581;29;19922;-66
2022/05/15 01:58:00;;;;;;;;;;;21.90;51.20;;;;;;4939452;29;19966;-66
2022/05/15 02:00:26;;;;;;;;;;;22.00;51.10;;;;;;4939148;29;19918;-66
2022/05/15 02:02:52;;;;;;;;;;;22.00;51.10;;;;;;4939172;29;19996;-67
2022/05/15 02:05:18;;;;;;;;;;;21.90;51.50;;;;;;4939017;29;20372;-67
2022/05/15 02:07:44;;;;;;;;;;;22.00;51.60;;;;;;4939024;29;19911;-67
2022/05/15 02:10:10;;;;;;;;;;;21.90;51.70;;;;;;4939217;29;19919;-67
2022/05/15 02:12:36;;;;;;;;;;;21.90;52.00;;;;;;4938837;29;19911;-67
2022/05/15 02:15:02;;;;;;;;;;;21.80;52.60;;;;;;4939145;29;19917;-65
2022/05/15 02:17:29;;;;;;;;;;;21.80;52.60;;;;;;4939403;29;19945;-67
2022/05/15 02:19:54;;;;;;;;;;;21.70;53.10;;;;;;4939192;29;19965;-67
2022/05/15 02:22:20;;;;;;;;;;;21.50;53.60;;;;;;4938983;29;19967;-66
2022/05/15 02:24:46;;;;;;;;;;;21.40;54.00;;;;;;4938676;29;19919;-68
2022/05/15 02:27:11;;;;;;;;;;;21.40;54.00;;;;;;4938516;29;20279;-68
2022/05/15 02:29:37;;;;;;;;;;;21.30;53.90;;;;;;4938868;29;19915;-67
2022/05/15 02:32:03;;;;;;;;;;;21.30;54.10;;;;;;4938657;29;19915;-67
2022/05/15 02:34:29;;;;;;;;;;;21.40;54.20;;;;;;4938630;29;19915;-67
2022/05/15 02:36:54;;;;;;;;;;;21.40;54.50;;;;;;4938708;29;19975;-69
2022/05/15 02:39:20;;;;;;;;;;;21.40;54.10;;;;;;4938573;29;19961;-68
2022/05/15 02:41:45;;;;;;;;;;;21.40;54.60;;;;;;4938256;29;19981;-67
2022/05/15 02:44:11;;;;;;;;;;;21.30;54.50;;;;;;4938549;29;19911;-69
2022/05/15 02:46:36;;;;;;;;;;;21.30;54.50;;;;;;4938347;29;19918;-67
2022/05/15 02:51:47;;;;;;;;;;;21.20;54.50;;;;;;4938658;29;19926;-65
2022/05/15 02:54:13;;;;;;;;;;;21.20;54.60;;;;;;4938178;29;20278;-67
2022/05/15 02:56:39;;;;;;;;;;;21.00;55.20;;;;;;4938324;29;19918;-65
2022/05/15 02:59:05;;;;;;;;;;;21.00;55.40;;;;;;4938075;29;19930;-66
2022/05/15 03:01:31;;;;;;;;;;;20.90;55.90;;;;;;4937954;29;19917;-65
2022/05/15 03:03:56;;;;;;;;;;;20.90;55.90;;;;;;4938170;29;19918;-66
2022/05/15 03:06:22;;;;;;;;;;;21.10;55.40;;;;;;4938246;29;20438;-66
2022/05/15 03:08:49;;;;;;;;;;;21.20;54.80;;;;;;4938032;29;19960;-66
2022/05/15 03:11:14;;;;;;;;;;;21.30;54.40;;;;;;4937633;29;20367;-66
2022/05/15 03:13:41;;;;;;;;;;;21.40;54.20;;;;;;4938028;29;19918;-66
2022/05/15 03:16:07;;;;;;;;;;;21.40;54.20;;;;;;4937877;29;19918;-66
2022/05/15 03:18:37;;;;;;;;;;;21.40;54.30;;;;;;4938065;29;20279;-66
2022/05/15 03:21:02;;;;;;;;;;;21.30;54.50;;;;;;4937713;29;19915;-66
2022/05/15 03:23:28;;;;;;;;;;;21.30;54.50;;;;;;4937790;29;20282;-66
2022/05/15 03:25:53;;;;;;;;;;;21.50;54.20;;;;;;4937486;29;19943;-66
2022/05/15 03:28:19;;;;;;;;;;;21.50;54.10;;;;;;4937595;29;19911;-67
2022/05/15 03:30:44;;;;;;;;;;;21.50;53.80;;;;;;4937447;29;19918;-66
2022/05/15 03:33:12;;;;;;;;;;;21.50;54.20;;;;;;4937414;29;19932;-66
2022/05/15 03:35:38;;;;;;;;;;;21.50;54.50;;;;;;4937544;29;20278;-67
2022/05/15 03:38:05;;;;;;;;;;;21.40;54.50;;;;;;4937535;29;19917;-67
2022/05/15 03:40:30;;;;;;;;;;;21.50;54.70;;;;;;4937354;29;19982;-66
2022/05/15 03:42:56;;;;;;;;;;;21.40;54.80;;;;;;4937173;29;19911;-67
2022/05/15 03:45:22;;;;;;;;;;;21.40;55.20;;;;;;4937253;29;19958;-66
2022/05/15 03:47:50;;;;;;;;;;;21.30;55.40;;;;;;4937279;29;19910;-66
2022/05/15 03:50:16;;;;;;;;;;;21.30;55.40;;;;;;4937303;29;20286;-65
2022/05/15 03:52:41;;;;;;;;;;;21.30;55.60;;;;;;4919934;29;19918;-65
2022/05/15 03:55:07;;;;;;;;;;;21.20;55.90;;;;;;4937522;29;19911;-66
2022/05/15 03:57:33;;;;;;;;;;;21.20;56.10;;;;;;4937145;29;19910;-68
2022/05/15 03:59:59;;;;;;;;;;;21.10;56.30;;;;;;4937128;29;19911;-65
2022/05/15 04:02:25;;;;;;;;;;;21.20;56.30;;;;;;4936901;29;19911;-66
2022/05/15 04:04:50;;;;;;;;;;;21.10;56.70;;;;;;4936897;29;19967;-67
2022/05/15 04:07:16;;;;;;;;;;;21.10;56.60;;;;;;4936993;29;19914;-66
2022/05/15 04:09:42;;;;;;;;;;;21.10;56.50;;;;;;4937287;29;19927;-66
2022/05/15 04:12:08;;;;;;;;;;;21.10;56.60;;;;;;4936542;29;20363;-66
2022/05/15 04:14:34;;;;;;;;;;;21.10;56.50;;;;;;4919719;29;20316;-66
2022/05/15 04:16:59;;;;;;;;;;;21.20;56.30;;;;;;4936916;29;19957;-66
2022/05/15 04:19:25;;;;;;;;;;;21.10;56.20;;;;;;4936815;29;20279;-67
2022/05/15 04:21:50;;;;;;;;;;;21.20;56.50;;;;;;4936776;29;19911;-66
2022/05/15 04:24:17;;;;;;;;;;;21.10;56.50;;;;;;4936682;29;19950;-67
2022/05/15 04:26:43;;;;;;;;;;;21.20;56.40;;;;;;4936462;29;19926;-66
2022/05/15 04:29:08;;;;;;;;;;;21.20;56.30;;;;;;4936794;29;20344;-66
2022/05/15 04:31:34;;;;;;;;;;;21.20;56.30;;;;;;4936450;29;19919;-66
2022/05/15 04:34:01;;;;;;;;;;;21.20;56.50;;;;;;4936666;29;19963;-65
2022/05/15 04:36:27;;;;;;;;;;;21.20;56.30;;;;;;4936492;29;20354;-67
2022/05/15 04:38:53;;;;;;;;;;;21.20;57.00;;;;;;4936748;29;19965;-67
2022/05/15 04:41:19;;;;;;;;;;;21.30;56.20;;;;;;4936532;29;19934;-66
2022/05/15 04:43:44;;;;;;;;;;;21.30;55.90;;;;;;4936578;29;20282;-65
2022/05/15 04:46:10;;;;;;;;;;;21.30;55.90;;;;;;4936396;29;19917;-66
2022/05/15 04:48:39;;;;;;;;;;;21.40;55.90;;;;;;4936663;29;19946;-65
2022/05/15 04:51:04;;;;;;;;;;;21.40;55.90;;;;;;4918985;29;19920;-66
2022/05/15 04:53:30;;;;;;;;;;;21.50;56.00;;;;;;4936466;29;19910;-66
2022/05/15 04:55:56;;;;;;;;;;;21.50;55.90;;;;;;4919341;29;19911;-66
2022/05/15 04:58:22;;;;;;;;;;;21.50;56.00;;;;;;4936484;29;20350;-66
2022/05/15 05:00:49;;;;;;;;;;;21.40;55.90;;;;;;4936540;29;19961;-66
2022/05/15 05:03:15;;;;;;;;;;;21.50;55.40;;;;;;4936527;29;20010;-68
2022/05/15 05:05:40;;;;;;;;;;;21.50;55.80;;;;;;4936265;29;19946;-66
2022/05/15 05:08:07;;;;;;;;;;;21.60;55.30;;;;;;4936616;29;19970;-66
2022/05/15 05:10:33;;;;;;;;;;;21.60;55.20;;;;;;4936353;29;19995;-67
2022/05/15 05:12:58;;;;;;;;;;;21.60;56.00;;;;;;4936256;29;19911;-67
2022/05/15 05:15:24;;;;;;;;;;;21.70;55.40;;;;;;4936205;29;19911;-66
2022/05/15 05:17:49;;;;;;;;;;;21.70;55.10;;;;;;4936314;29;19915;-66
2022/05/15 05:20:15;;;;;;;;;;;21.70;55.10;;;;;;4936165;29;20286;-67
2022/05/15 05:22:41;;;;;;;;;;;21.70;55.10;;;;;;4936137;29;20271;-67
2022/05/15 05:25:07;;;;;;;;;;;21.80;55.20;;;;;;4937463;29;20389;-68
2022/05/15 05:27:34;;;;;;;;;;;21.80;55.10;;;;;;4939779;29;19921;-66
2022/05/15 05:29:59;;;;;;;;;;;21.80;55.10;;;;;;4939981;29;19954;-66
2022/05/15 05:32:25;;;;;;;;;;;21.80;55.40;;;;;;4940216;29;19911;-66
2022/05/15 05:34:51;;;;;;;;;;;21.80;55.50;;;;;;4939820;29;19911;-67
2022/05/15 05:37:17;;;;;;;;;;;21.80;56.30;;;;;;4939578;29;19910;-66
2022/05/15 05:39:43;;;;;;;;;;;21.80;55.40;;;;;;4939676;29;19915;-66
2022/05/15 05:42:09;;;;;;;;;;;21.90;55.50;;;;;;4939509;29;19967;-66
2022/05/15 05:44:35;;;;;;;;;;;22.10;55.40;;;;;;4939425;29;19911;-66
2022/05/15 05:47:00;;;;;;;;;;;22.40;54.60;;;;;;4939477;29;20394;-67
2022/05/15 05:49:26;;;;;;;;;;;22.80;53.90;;;;;;4939421;29;19911;-66
2022/05/15 05:51:51;;;;;;;;;;;23.10;52.90;;;;;;4939479;29;19994;-66
2022/05/15 05:54:17;;;;;;;;;;;23.30;52.60;;;;;;4922204;29;19918;-66
2022/05/15 05:56:43;;;;;;;;;;;23.30;52.20;;;;;;4939532;29;20407;-67
2022/05/15 05:59:08;;;;;;;;;;;23.40;52.20;;;;;;4939384;29;19911;-67
2022/05/15 06:01:34;;;;;;;;;;;23.50;51.60;;;;;;4939166;29;19958;-66
2022/05/15 06:06:44;;;;;;;;;;;23.70;51.20;;;;;;4939101;29;19918;-62
2022/05/15 06:09:09;;;;;;;;;;;23.70;51.70;;;;;;4939156;29;19911;-61
2022/05/15 06:11:35;;;;;;;;;;;24.00;51.50;;;;;;4938889;29;19946;-63
2022/05/15 06:14:00;;;;;;;;;;;24.30;50.80;;;;;;4938658;29;19966;-70
2022/05/15 06:16:27;;;;;;;;;;;24.40;50.40;;;;;;4938907;29;19917;-70
2022/05/15 06:18:52;;;;;;;;;;;24.60;50.00;;;;;;4939005;29;19978;-76
2022/05/15 06:21:18;;;;;;;;;;;24.80;49.90;;;;;;4938874;29;20355;-74
2022/05/15 06:23:44;;;;;;;;;;;25.00;49.70;;;;;;4939416;29;19938;-76
2022/05/15 06:26:10;;;;;;;;;;;25.00;49.10;;;;;;4938856;29;20302;-78
2022/05/15 06:28:36;;;;;;;;;;;25.20;48.80;;;;;;4938679;29;20013;-77
2022/05/15 06:31:02;;;;;;;;;;;25.30;48.50;;;;;;4938363;29;19951;-75
2022/05/15 06:33:28;;;;;;;;;;;25.30;48.00;;;;;;4938920;29;19915;-75
2022/05/15 06:35:54;;;;;;;;;;;25.40;48.10;;;;;;4938654;29;19911;-71
2022/05/15 06:38:19;;;;;;;;;;;25.50;47.80;;;;;;4938628;29;19982;-68
2022/05/15 06:40:45;;;;;;;;;;;25.60;47.90;;;;;;4938498;29;19911;-74
2022/05/15 06:43:10;;;;;;;;;;;25.60;47.80;;;;;;4938466;29;19919;-70
2022/05/15 06:45:36;;;;;;;;;;;25.60;47.80;;;;;;4938429;29;20355;-65
2022/05/15 06:48:02;;;;;;;;;;;25.70;47.70;;;;;;4939705;29;20085;-72
2022/05/15 06:50:28;;;;;;;;;;;25.80;47.80;;;;;;4946676;29;20387;-68
2022/05/15 06:52:53;;;;;;;;;;;25.80;47.90;;;;;;4947973;29;19911;-71
2022/05/15 06:55:21;;;;;;;;;;;25.90;47.70;;;;;;4946537;29;20287;-71
2022/05/15 06:57:50;;;;;;;;;;;26.10;47.40;;;;;;4948791;29;19910;-75
2022/05/15 07:00:18;;;;;;;;;;;26.20;47.10;;;;;;4919445;29;19912;-73
2022/05/15 07:02:44;;;;;;;;;;;26.30;46.70;;;;;;4932311;29;19918;-75
2022/05/15 07:05:10;;;;;;;;;;;26.40;46.70;;;;;;4935132;29;19911;-77
2022/05/15 07:07:37;;;;;;;;;;;26.50;46.30;;;;;;4919595;29;19915;-74
2022/05/15 07:10:04;;;;;;;;;;;26.60;46.00;;;;;;4919167;29;20276;-75
2022/05/15 07:12:29;;;;;;;;;;;26.80;45.60;;;;;;4917575;29;19915;-70
2022/05/15 07:14:55;;;;;;;;;;;27.00;45.70;;;;;;4918536;29;19922;-69
2022/05/15 07:17:20;;;;;;;;;;;27.10;45.30;;;;;;4918705;29;19966;-71
2022/05/15 07:19:46;;;;;;;;;;;27.20;44.70;;;;;;4918638;29;19919;-69
2022/05/15 07:22:12;;;;;;;;;;;27.40;44.80;;;;;;4918691;29;19921;-70
2022/05/15 07:24:38;;;;;;;;;;;27.50;44.70;;;;;;4918528;29;19911;-71
2022/05/15 07:27:08;;;;;;;;;;;27.70;44.70;;;;;;4918598;29;20385;-68
2022/05/15 07:29:36;;;;;;;;;;;27.70;43.50;;;;;;4918486;29;19911;-70
2022/05/15 07:32:05;;;;;;;;;;;27.70;43.20;;;;;;4918483;29;19990;-70
2022/05/15 07:34:31;;;;;;;;;;;27.80;43.10;;;;;;4918476;29;20319;-67
2022/05/15 07:36:57;;;;;;;;;;;28.00;43.10;;;;;;4917734;29;20066;-71
2022/05/15 07:39:22;;;;;;;;;;;28.10;43.60;;;;;;4917708;29;19915;-65
2022/05/15 07:41:48;;;;;;;;;;;28.30;43.30;;;;;;4925810;29;19914;-64
2022/05/15 07:44:14;;;;;;;;;;;28.30;40.80;;;;;;4945467;29;19994;-66
2022/05/15 07:46:40;;;;;;;;;;;28.30;41.60;;;;;;4944795;29;19910;-66
2022/05/15 07:49:06;;;;;;;;;;;28.40;41.90;;;;;;4945897;29;19970;-65
2022/05/15 07:51:32;;;;;;;;;;;28.40;40.90;;;;;;4944799;29;19946;-66
2022/05/15 07:53:58;;;;;;;;;;;28.40;40.60;;;;;;4942358;29;19965;-64
2022/05/15 07:56:24;;;;;;;;;;;28.40;40.50;;;;;;4936341;29;19911;-65
2022/05/15 07:58:49;;;;;;;;;;;28.30;39.70;;;;;;4935981;29;19974;-64
2022/05/15 08:01:15;;;;;;;;;;;28.30;40.40;;;;;;4935965;29;19915;-66
2022/05/15 08:03:43;;;;;;;;;;;28.30;40.50;;;;;;4936106;29;20317;-63
2022/05/15 08:08:58;;;;;;;;;;;28.30;40.90;;;;;;4935944;29;20056;-63
2022/05/15 08:11:27;;;;;;;;;;;28.30;39.80;;;;;;4943027;29;19969;-59
2022/05/15 08:13:54;;;;;;;;;;;28.50;40.20;;;;;;4942765;29;20456;-68
2022/05/15 08:16:19;;;;;;;;;;;28.50;40.80;;;;;;4945984;29;19910;-61
2022/05/15 08:24:14;;;;;;;;;;;28.70;39.60;;;;;;4937502;29;19930;-62
2022/05/15 08:26:40;;;;;;;;;;;28.90;38.40;;;;;;4918248;29;20311;-63
2022/05/15 08:29:05;;;;;;;;;;;28.90;38.20;;;;;;4936151;29;19917;-64
2022/05/15 08:31:31;;;;;;;;;;;28.90;38.70;;;;;;4935540;29;20367;-63
2022/05/15 08:33:57;;;;;;;;;;;28.90;39.50;;;;;;4935675;29;19947;-67
2022/05/15 08:36:23;;;;;;;;;;;28.90;40.50;;;;;;4935562;29;19914;-64
2022/05/15 08:38:48;;;;;;;;;;;28.90;40.30;;;;;;4935820;29;19918;-65
2022/05/15 08:41:16;;;;;;;;;;;28.90;38.40;;;;;;4935816;29;19910;-63
2022/05/15 08:43:50;;;;;;;;;;;29.00;39.20;;;;;;4935897;29;20039;-65
2022/05/15 08:46:21;;;;;;;;;;;28.80;40.10;;;;;;4935743;29;19918;-61
2022/05/15 08:48:47;;;;;;;;;;;28.70;41.20;;;;;;4935672;29;20343;-63
2022/05/15 08:51:13;;;;;;;;;;;28.60;41.70;;;;;;4935472;29;19919;-66
2022/05/15 08:53:41;;;;;;;;;;;28.40;41.80;;;;;;4935524;29;20043;-64
2022/05/15 08:56:08;;;;;;;;;;;28.20;42.70;;;;;;4935916;29;19918;-61
2022/05/15 08:58:43;;;;;;;;;;;27.90;43.60;;;;;;4921687;29;19974;-61
2022/05/15 09:01:11;;;;;;;;;;;27.70;44.20;;;;;;4949788;29;19917;-61
2022/05/15 09:03:40;;;;;;;;;;;27.60;44.70;;;;;;4948833;29;19966;-64
2022/05/15 09:06:23;;;;;;;;;;;27.50;45.40;;;;;;4947781;29;19918;-67
2022/05/15 09:09:08;;;;;;;;;;;27.40;45.20;;;;;;4947729;29;20083;-75
2022/05/15 09:11:52;;;;;;;;;;;27.30;45.60;;;;;;4948182;29;20013;-63
2022/05/15 09:14:21;;;;;;;;;;;27.20;45.80;;;;;;4949189;29;19919;-64
2022/05/15 09:17:10;;;;;;;;;;;27.20;45.70;;;;;;4931186;29;20347;-60
2022/05/15 09:19:37;;;;;;;;;;;27.20;45.70;;;;;;4938159;29;19914;-57
2022/05/15 09:22:04;;;;;;;;;;;27.10;45.50;;;;;;4958326;29;20480;-64
2022/05/15 09:24:34;;;;;;;;;;;27.20;45.80;;;;;;4958482;29;19918;-63
2022/05/15 09:27:13;;;;;;;;;;;27.30;46.10;;;;;;4940973;29;20300;-62
2022/05/15 09:29:39;;;;;;;;;;;27.30;45.20;;;;;;4958171;29;19957;-66
2022/05/15 09:32:13;;;;;;;;;;;27.20;44.50;;;;;;4957983;29;19910;-65
2022/05/15 09:34:40;;;;;;;;;;;27.20;45.30;;;;;;4958073;29;19987;-68
2022/05/15 09:39:51;;;;;;;;;;;27.10;44.90;;;;;;4958363;29;19918;-60
2022/05/15 09:45:09;;;;;;;;;;;27.00;44.80;;;;;;4957968;29;19937;-67
2022/05/15 09:47:39;;;;;;;;;;;27.00;47.10;;;;;;4958723;29;19911;-67
2022/05/15 09:50:08;;;;;;;;;;;27.00;45.90;;;;;;4971039;29;19946;-59
2022/05/15 09:52:40;;;;;;;;;;;27.00;46.20;;;;;;4964365;29;19918;-64
2022/05/15 09:55:08;;;;;;;;;;;27.00;45.70;;;;;;4948704;29;20379;-68
2022/05/15 09:57:34;;;;;;;;;;;27.00;46.50;;;;;;4940642;29;19922;-67
2022/05/15 10:00:03;;;;;;;;;;;26.90;45.40;;;;;;4947334;29;19918;-59
2022/05/15 10:02:29;;;;;;;;;;;26.90;46.80;;;;;;4946503;29;19917;-66
2022/05/15 10:04:56;;;;;;;;;;;26.90;45.80;;;;;;4947913;29;19911;-69
2022/05/15 10:07:48;;;;;;;;;;;26.90;46.20;;;;;;4946431;29;19993;-65
2022/05/15 10:10:16;;;;;;;;;;;26.90;46.60;;;;;;4948467;28;20322;-68
2022/05/15 10:12:43;;;;;;;;;;;26.80;45.00;;;;;;4957374;29;19910;-64
2022/05/15 10:15:09;;;;;;;;;;;26.70;45.50;;;;;;4957337;29;19949;-65
2022/05/15 10:17:38;;;;;;;;;;;26.70;44.70;;;;;;4957358;29;19910;-65
2022/05/15 10:20:04;;;;;;;;;;;26.70;47.10;;;;;;4957215;29;19910;-65
2022/05/15 10:22:34;;;;;;;;;;;26.80;45.10;;;;;;4957223;29;19967;-63
2022/05/15 10:25:16;;;;;;;;;;;26.90;44.90;;;;;;4956909;29;19977;-64
2022/05/15 10:27:43;;;;;;;;;;;26.80;44.60;;;;;;4957310;29;19965;-64
2022/05/15 10:30:16;;;;;;;;;;;26.80;44.80;;;;;;4957254;29;19973;-64
2022/05/15 10:32:46;;;;;;;;;;;26.80;46.40;;;;;;4956947;29;19979;-62
2022/05/15 10:35:14;;;;;;;;;;;26.80;46.70;;;;;;4957004;29;19918;-62
2022/05/15 10:37:48;;;;;;;;;;;26.80;44.60;;;;;;4956905;29;19918;-62
2022/05/15 10:40:19;;;;;;;;;;;26.90;43.30;;;;;;4957178;29;20278;-65
2022/05/15 10:42:51;;;;;;;;;;;26.90;43.00;;;;;;4939581;29;19910;-62
2022/05/15 10:45:29;;;;;;;;;;;26.90;43.50;;;;;;4956811;29;19910;-64
2022/05/15 10:48:04;;;;;;;;;;;26.90;43.50;;;;;;4957260;29;19965;-64
2022/05/15 10:50:33;;;;;;;;;;;27.00;43.90;;;;;;4956721;29;19919;-63
2022/05/15 10:57:21;;;;;;;;;;;27.00;43.50;;;;;;4956463;29;19917;-64
2022/05/15 10:58:56;;;;;;;;;;;26.90;45.70;;;;;;4956849;29;20274;-69
2022/05/15 11:01:27;;;;;;;;;;;26.80;45.90;;;;;;4956406;29;19925;-65
2022/05/15 11:04:07;;;;;;;;;;;26.70;45.90;;;;;;4948184;29;19915;-62
2022/05/15 11:06:42;;;;;;;;;;;26.60;45.70;;;;;;4948391;29;19961;-65
2022/05/15 11:09:19;;;;;;;;;;;26.60;46.30;;;;;;4947751;29;19911;-64
2022/05/15 11:11:50;;;;;;;;;;;26.50;45.80;;;;;;4936813;29;20431;-63
2022/05/15 11:14:28;;;;;;;;;;;26.40;46.80;;;;;;4939330;29;20406;-65
2022/05/15 11:17:12;;;;;;;;;;;26.40;46.80;;;;;;4937007;29;19911;-68
2022/05/15 11:19:39;;;;;;;;;;;26.40;47.00;;;;;;4936929;29;19911;-63
2022/05/15 11:22:05;;;;;;;;;;;26.50;47.70;;;;;;4936251;29;19917;-68
2022/05/15 11:24:57;;;;;;;;;;;26.50;45.90;;;;;;4936488;29;20001;-62
2022/05/15 11:27:31;;;;;;;;;;;26.50;45.20;;;;;;4928340;29;20374;-62
2022/05/15 11:30:00;;;;;;;;;;;26.40;46.80;;;;;;4936849;29;19910;-62
2022/05/15 11:32:30;;;;;;;;;;;26.40;46.20;;;;;;4936349;29;19926;-62
2022/05/15 11:35:22;;;;;;;;;;;26.40;44.90;;;;;;4936821;29;19911;-61
2022/05/15 11:38:00;;;;;;;;;;;26.50;46.60;;;;;;4933776;29;19911;-62
2022/05/15 11:40:29;;;;;;;;;;;26.50;43.60;;;;;;4936565;29;20275;-63
2022/05/15 11:42:55;;;;;;;;;;;26.50;44.00;;;;;;4936624;29;20343;-61
2022/05/15 11:45:35;;;;;;;;;;;26.50;45.70;;;;;;4936361;29;19957;-67
2022/05/15 11:48:11;;;;;;;;;;;26.50;43.60;;;;;;4936437;29;19911;-72
2022/05/15 11:51:04;;;;;;;;;;;26.50;42.80;;;;;;4936725;29;19974;-70
2022/05/15 11:53:37;;;;;;;;;;;26.50;42.90;;;;;;4928339;29;19946;-62
2022/05/15 11:56:22;;;;;;;;;;;26.40;44.40;;;;;;4936373;29;19911;-66
2022/05/15 11:58:58;;;;;;;;;;;26.40;43.70;;;;;;4936649;29;19911;-63
2022/05/15 12:01:23;;;;;;;;;;;26.40;43.20;;;;;;4936243;29;19982;-63
2022/05/15 12:03:54;;;;;;;;;;;26.40;42.80;;;;;;4936107;29;19911;-62
2022/05/15 12:06:23;;;;;;;;;;;26.50;42.80;;;;;;4936036;29;19926;-63
2022/05/15 12:08:50;;;;;;;;;;;26.50;42.70;;;;;;4936250;29;19965;-61
2022/05/15 12:11:18;;;;;;;;;;;26.40;42.80;;;;;;4935795;29;20346;-63
2022/05/15 12:13:46;;;;;;;;;;;26.40;42.60;;;;;;4935536;29;20006;-64
2022/05/15 12:16:17;;;;;;;;;;;26.50;42.60;;;;;;4935437;29;19911;-62
2022/05/15 12:18:43;;;;;;;;;;;26.50;42.60;;;;;;4935665;29;19934;-62
2022/05/15 12:21:09;;;;;;;;;;;26.50;42.90;;;;;;4935593;29;19911;-61
2022/05/15 12:23:36;;;;;;;;;;;26.60;41.70;;;;;;4935967;29;19915;-63
2022/05/15 12:26:05;;;;;;;;;;;26.60;42.10;;;;;;4935424;29;19981;-64
2022/05/15 12:31:36;;;;;;;;;;;26.60;40.80;;;;;;4935048;29;20381;-62
2022/05/15 12:34:13;;;;;;;;;;;26.60;40.80;;;;;;4943310;29;20006;-63
2022/05/15 12:36:44;;;;;;;;;;;26.60;42.10;;;;;;4950117;29;20422;-64
2022/05/15 12:39:15;;;;;;;;;;;26.70;41.20;;;;;;4935997;29;19957;-66
2022/05/15 12:41:44;;;;;;;;;;;26.70;42.90;;;;;;4935404;29;19914;-63
2022/05/15 12:44:11;;;;;;;;;;;26.70;42.60;;;;;;4935568;29;19910;-62
2022/05/15 12:46:38;;;;;;;;;;;26.70;42.20;;;;;;4935597;29;19940;-62
2022/05/15 12:49:04;;;;;;;;;;;26.80;43.50;;;;;;4935716;29;20363;-62
2022/05/15 12:51:32;;;;;;;;;;;26.80;43.20;;;;;;4935388;29;19942;-65
2022/05/15 12:53:58;;;;;;;;;;;26.80;42.40;;;;;;4935741;29;19911;-63
2022/05/15 12:56:26;;;;;;;;;;;26.90;42.20;;;;;;4935499;29;19911;-63
2022/05/15 12:58:54;;;;;;;;;;;26.90;42.00;;;;;;4935593;29;19911;-61
2022/05/15 13:01:20;;;;;;;;;;;26.90;41.80;;;;;;4935332;29;19933;-64
2022/05/15 13:03:49;;;;;;;;;;;26.90;41.80;;;;;;4935554;29;20355;-64
2022/05/15 13:06:17;;;;;;;;;;;26.90;42.10;;;;;;4935332;29;19911;-69
2022/05/15 13:08:56;;;;;;;;;;;26.90;41.80;;;;;;4935676;29;20009;-63
2022/05/15 13:11:23;;;;;;;;;;;26.90;42.50;;;;;;4935010;29;19923;-63
2022/05/15 13:13:51;;;;;;;;;;;26.90;42.10;;;;;;4936085;29;19922;-73
2022/05/15 13:16:18;;;;;;;;;;;26.90;42.00;;;;;;4935272;29;19968;-66
2022/05/15 13:18:45;;;;;;;;;;;27.00;41.50;;;;;;4935548;29;19911;-63
2022/05/15 13:21:11;;;;;;;;;;;27.00;41.50;;;;;;4935291;29;19911;-65
2022/05/15 13:23:39;;;;;;;;;;;27.00;42.20;;;;;;4935408;29;19926;-70
2022/05/15 13:26:06;;;;;;;;;;;27.00;41.60;;;;;;4934682;29;19926;-68
2022/05/15 13:28:34;;;;;;;;;;;27.00;41.00;;;;;;4934357;29;20188;-70
2022/05/15 13:31:00;;;;;;;;;;;27.00;41.40;;;;;;4935180;29;19919;-65
2022/05/15 13:33:28;;;;;;;;;;;26.90;41.10;;;;;;4935263;29;19917;-66
2022/05/15 13:35:55;;;;;;;;;;;27.00;41.50;;;;;;4935203;29;20018;-67
2022/05/15 13:38:21;;;;;;;;;;;27.00;40.30;;;;;;4935727;29;19910;-67
2022/05/15 13:43:34;;;;;;;;;;;27.00;41.40;;;;;;4934945;29;20243;-65
2022/05/15 13:46:01;;;;;;;;;;;27.00;41.70;;;;;;4919214;29;20366;-64
2022/05/15 13:48:26;;;;;;;;;;;27.00;41.10;;;;;;4938916;29;19967;-64
2022/05/15 13:50:54;;;;;;;;;;;27.00;42.20;;;;;;4940602;29;19919;-62
2022/05/15 13:53:33;;;;;;;;;;;27.10;41.90;;;;;;4943068;29;19910;-63
2022/05/15 13:55:59;;;;;;;;;;;27.10;41.20;;;;;;4940681;29;19973;-60
2022/05/15 13:58:42;;;;;;;;;;;27.10;41.50;;;;;;4921367;29;19911;-63
2022/05/15 14:01:16;;;;;;;;;;;27.10;42.30;;;;;;4939203;29;19974;-62
2022/05/15 14:03:44;;;;;;;;;;;27.00;42.20;;;;;;4938793;29;20389;-67
2022/05/15 14:06:22;;;;;;;;;;;27.00;42.20;;;;;;4938216;29;19974;-61
2022/05/15 14:09:03;;;;;;;;;;;27.10;42.60;;;;;;4938122;29;20349;-66
2022/05/15 14:11:46;;;;;;;;;;;27.00;42.80;;;;;;4937672;29;19938;-63
2022/05/15 14:14:11;;;;;;;;;;;27.10;42.90;;;;;;4937810;29;19911;-63
2022/05/15 14:16:37;;;;;;;;;;;27.10;42.50;;;;;;4938195;29;20416;-63
2022/05/15 14:19:13;;;;;;;;;;;27.10;42.50;;;;;;4938304;29;19921;-63
2022/05/15 14:21:54;;;;;;;;;;;27.00;42.30;;;;;;4937562;29;19911;-63
2022/05/15 14:24:20;;;;;;;;;;;27.00;42.00;;;;;;4935591;29;20359;-63
2022/05/15 14:26:45;;;;;;;;;;;27.00;43.30;;;;;;4937224;29;19971;-63
2022/05/15 14:29:12;;;;;;;;;;;27.00;41.80;;;;;;4936945;29;19971;-63
2022/05/15 14:31:39;;;;;;;;;;;27.00;41.30;;;;;;4935476;29;20291;-58
2022/05/15 14:34:04;;;;;;;;;;;27.00;42.40;;;;;;4938535;29;19946;-63
2022/05/15 14:36:32;;;;;;;;;;;27.00;41.30;;;;;;4938636;29;19917;-65
2022/05/15 14:38:58;;;;;;;;;;;27.00;42.30;;;;;;4938597;29;19917;-65
2022/05/15 14:41:25;;;;;;;;;;;27.00;42.30;;;;;;4938337;29;20006;-64
2022/05/15 14:43:50;;;;;;;;;;;27.00;42.60;;;;;;4938096;29;19946;-62
2022/05/15 14:46:18;;;;;;;;;;;27.10;41.80;;;;;;4938813;29;19950;-62
2022/05/15 14:48:44;;;;;;;;;;;27.10;42.40;;;;;;4938506;29;19918;-64